Time;durP1;ratioP1;P1;durP2;ratioP2;P2;SDS_P1;SDS_P2;PMS_P1;PMS_P2;Temp;Humidity;BMP_temperature;BMP_pressure;BME280_temperature;BME280_humidity;BME280_pressure;Samples;Min_cycle;Max_cycle;Signal;HPM_P1;HPM_P2
2021/09/25 00:02:15;;;;;;;6.90;6.40;;;;;;;;;;5129131;27;24413;-59
2021/09/25 00:04:40;;;;;;;6.73;6.23;;;;;;;;;;5128729;27;24423;-59
2021/09/25 00:07:05;;;;;;;7.10;6.50;;;;;;;;;;5128901;27;24830;-60
2021/09/25 00:09:30;;;;;;;8.00;7.40;;;;;;;;;;5115059;27;24432;-59
2021/09/25 00:11:55;;;;;;;7.10;6.50;;;;;;;;;;5127497;27;24960;-59
2021/09/25 00:14:21;;;;;;;7.07;6.47;;;;;;;;;;5129572;27;24401;-59
2021/09/25 00:16:46;;;;;;;6.07;5.67;;;;;;;;;;5128904;27;24473;-60
2021/09/25 00:19:11;;;;;;;6.10;5.70;;;;;;;;;;5117529;27;24444;-59
2021/09/25 00:21:37;;;;;;;6.80;6.20;;;;;;;;;;5120878;27;24556;-60
2021/09/25 00:24:02;;;;;;;5.90;5.40;;;;;;;;;;5127209;27;24448;-60
2021/09/25 00:26:28;;;;;;;4.70;4.40;;;;;;;;;;5129317;27;24440;-60
2021/09/25 00:28:54;;;;;;;5.50;5.00;;;;;;;;;;5120956;27;24422;-60
2021/09/25 00:31:19;;;;;;;4.70;4.30;;;;;;;;;;5117240;27;24424;-59
2021/09/25 00:33:44;;;;;;;4.00;3.80;;;;;;;;;;5128591;27;24994;-60
2021/09/25 00:36:09;;;;;;;4.10;3.80;;;;;;;;;;5128077;27;24537;-60
2021/09/25 00:38:36;;;;;;;4.10;3.80;;;;;;;;;;5128529;27;24425;-60
2021/09/25 00:41:02;;;;;;;4.00;3.80;;;;;;;;;;5128216;27;24416;-59
2021/09/25 00:43:27;;;;;;;4.50;4.10;;;;;;;;;;5128232;27;24423;-60
2021/09/25 00:45:52;;;;;;;4.72;4.43;;;;;;;;;;5128251;27;24413;-59
2021/09/25 00:48:17;;;;;;;3.40;3.20;;;;;;;;;;5128414;27;24513;-60
2021/09/25 00:50:42;;;;;;;3.53;3.23;;;;;;;;;;5128652;27;24409;-59
2021/09/25 00:53:08;;;;;;;3.90;3.60;;;;;;;;;;5127275;27;24513;-59
2021/09/25 00:55:33;;;;;;;3.40;3.20;;;;;;;;;;5128441;27;24507;-60
2021/09/25 00:57:59;;;;;;;4.27;3.97;;;;;;;;;;5127644;27;24451;-60
2021/09/25 01:00:24;;;;;;;4.00;3.70;;;;;;;;;;5126307;27;24959;-60
2021/09/25 01:02:50;;;;;;;3.80;3.60;;;;;;;;;;5127549;27;24422;-59
2021/09/25 01:05:17;;;;;;;4.40;4.10;;;;;;;;;;5127050;27;24623;-59
2021/09/25 01:07:42;;;;;;;4.30;4.00;;;;;;;;;;5128181;27;24453;-59
2021/09/25 01:10:08;;;;;;;3.90;3.67;;;;;;;;;;5127638;27;25096;-60
2021/09/25 01:12:33;;;;;;;3.90;3.60;;;;;;;;;;5127302;27;24417;-60
2021/09/25 01:14:58;;;;;;;3.47;3.27;;;;;;;;;;5126597;27;24420;-59
2021/09/25 01:17:23;;;;;;;4.28;3.97;;;;;;;;;;5127630;27;24770;-59
2021/09/25 01:19:48;;;;;;;3.50;3.30;;;;;;;;;;5127667;27;24441;-59
2021/09/25 01:22:14;;;;;;;4.20;3.90;;;;;;;;;;5127613;27;24471;-59
2021/09/25 01:24:39;;;;;;;3.23;3.03;;;;;;;;;;5127054;27;24409;-59
2021/09/25 01:27:04;;;;;;;3.40;3.20;;;;;;;;;;5127544;27;24424;-59
2021/09/25 01:29:30;;;;;;;3.30;3.10;;;;;;;;;;5127252;27;24593;-59
2021/09/25 01:31:55;;;;;;;3.60;3.40;;;;;;;;;;5127368;27;24413;-59
2021/09/25 01:34:21;;;;;;;3.30;3.10;;;;;;;;;;5126717;27;24433;-59
2021/09/25 01:36:46;;;;;;;4.00;3.70;;;;;;;;;;5127445;27;24416;-59
2021/09/25 01:39:12;;;;;;;4.10;3.80;;;;;;;;;;5127385;27;24421;-59
2021/09/25 01:41:37;;;;;;;3.57;3.27;;;;;;;;;;5126761;27;24532;-59
2021/09/25 01:44:02;;;;;;;3.58;3.38;;;;;;;;;;5127436;27;24400;-59
2021/09/25 01:46:27;;;;;;;3.50;3.30;;;;;;;;;;5126847;27;24648;-59
2021/09/25 01:48:52;;;;;;;3.97;3.73;;;;;;;;;;5127336;27;24421;-59
2021/09/25 01:51:17;;;;;;;3.13;2.92;;;;;;;;;;5126625;27;24424;-59
2021/09/25 01:53:43;;;;;;;3.90;3.60;;;;;;;;;;5126579;27;24781;-59
2021/09/25 01:56:09;;;;;;;2.90;2.70;;;;;;;;;;5126307;27;24449;-59
2021/09/25 01:58:34;;;;;;;3.30;3.10;;;;;;;;;;5127026;27;24666;-59
2021/09/25 02:00:59;;;;;;;3.10;2.90;;;;;;;;;;5126969;27;24503;-60
2021/09/25 02:03:25;;;;;;;3.30;3.10;;;;;;;;;;5127043;27;24512;-59
2021/09/25 02:05:50;;;;;;;3.10;2.90;;;;;;;;;;5126656;27;24420;-59
2021/09/25 02:08:15;;;;;;;3.00;2.80;;;;;;;;;;5127124;27;24778;-60
2021/09/25 02:10:40;;;;;;;3.45;3.25;;;;;;;;;;5127167;27;24482;-59
2021/09/25 02:13:05;;;;;;;3.00;2.80;;;;;;;;;;5126683;27;24643;-59
2021/09/25 02:15:32;;;;;;;3.40;3.20;;;;;;;;;;5127070;27;24405;-59
2021/09/25 02:17:57;;;;;;;3.40;3.20;;;;;;;;;;5126112;27;24416;-60
2021/09/25 02:20:22;;;;;;;3.17;2.97;;;;;;;;;;5126863;27;24421;-59
2021/09/25 02:22:48;;;;;;;3.50;3.30;;;;;;;;;;5126411;28;24443;-59
2021/09/25 02:25:13;;;;;;;2.77;2.57;;;;;;;;;;5126647;28;24561;-59
2021/09/25 02:27:41;;;;;;;4.10;3.70;;;;;;;;;;5126021;28;24417;-59
2021/09/25 02:30:08;;;;;;;3.10;2.90;;;;;;;;;;5125912;28;24739;-59
2021/09/25 02:32:33;;;;;;;3.40;3.20;;;;;;;;;;5117552;28;24404;-59
2021/09/25 02:34:58;;;;;;;2.83;2.63;;;;;;;;;;5126464;28;24433;-59
2021/09/25 02:37:24;;;;;;;3.10;2.90;;;;;;;;;;5126756;28;24971;-59
2021/09/25 02:39:49;;;;;;;3.00;2.80;;;;;;;;;;5125989;28;24562;-59
2021/09/25 02:42:14;;;;;;;3.70;3.40;;;;;;;;;;5126270;28;24490;-59
2021/09/25 02:44:39;;;;;;;3.20;3.00;;;;;;;;;;5126773;28;24986;-60
2021/09/25 02:47:04;;;;;;;3.10;2.90;;;;;;;;;;5126393;28;24424;-59
2021/09/25 02:49:29;;;;;;;3.30;3.10;;;;;;;;;;5126658;28;24964;-59
2021/09/25 02:51:55;;;;;;;3.20;3.00;;;;;;;;;;5125918;28;25263;-59
2021/09/25 02:54:20;;;;;;;2.90;2.70;;;;;;;;;;5126552;28;24408;-60
2021/09/25 02:56:45;;;;;;;2.70;2.60;;;;;;;;;;5126336;27;24466;-60
2021/09/25 02:59:10;;;;;;;2.60;2.40;;;;;;;;;;5116824;28;24498;-60
2021/09/25 03:01:35;;;;;;;3.33;3.10;;;;;;;;;;5126362;28;24417;-60
2021/09/25 03:04:01;;;;;;;2.97;2.77;;;;;;;;;;5126314;28;24531;-60
2021/09/25 03:06:26;;;;;;;2.73;2.53;;;;;;;;;;5126500;28;24431;-60
2021/09/25 03:08:52;;;;;;;2.50;2.40;;;;;;;;;;5126474;28;24818;-60
2021/09/25 03:11:17;;;;;;;3.13;2.90;;;;;;;;;;5125805;28;24537;-60
2021/09/25 03:13:42;;;;;;;3.00;2.80;;;;;;;;;;5125758;28;24963;-59
2021/09/25 03:16:07;;;;;;;2.60;2.50;;;;;;;;;;5126419;28;24585;-59
2021/09/25 03:18:33;;;;;;;2.90;2.70;;;;;;;;;;5126285;28;24435;-60
2021/09/25 03:20:58;;;;;;;3.10;2.90;;;;;;;;;;5126146;28;24780;-60
2021/09/25 03:23:23;;;;;;;3.30;3.10;;;;;;;;;;5125610;28;25027;-60
2021/09/25 03:25:48;;;;;;;3.13;2.93;;;;;;;;;;5125630;28;24999;-59
2021/09/25 03:28:13;;;;;;;2.93;2.73;;;;;;;;;;5124594;27;24413;-59
2021/09/25 03:30:38;;;;;;;3.65;3.35;;;;;;;;;;5122071;27;24531;-59
2021/09/25 03:33:04;;;;;;;3.08;2.88;;;;;;;;;;5129394;27;24425;-59
2021/09/25 03:35:29;;;;;;;2.50;2.40;;;;;;;;;;5129982;27;24417;-59
2021/09/25 03:37:54;;;;;;;3.17;2.97;;;;;;;;;;5126141;27;24512;-60
2021/09/25 03:40:19;;;;;;;3.40;3.20;;;;;;;;;;5129559;27;24417;-60
2021/09/25 03:42:45;;;;;;;3.40;3.20;;;;;;;;;;5128365;27;24432;-59
2021/09/25 03:45:10;;;;;;;3.20;3.00;;;;;;;;;;5115745;27;24746;-60
2021/09/25 03:47:35;;;;;;;4.10;3.80;;;;;;;;;;5114425;27;24975;-60
2021/09/25 03:50:00;;;;;;;3.30;3.10;;;;;;;;;;5129153;27;24425;-60
2021/09/25 03:52:25;;;;;;;3.33;3.13;;;;;;;;;;5129387;27;24420;-60
2021/09/25 03:54:51;;;;;;;4.47;4.07;;;;;;;;;;5129051;27;25027;-60
2021/09/25 03:57:16;;;;;;;3.92;3.72;;;;;;;;;;5128677;27;24565;-60
2021/09/25 03:59:41;;;;;;;4.22;3.92;;;;;;;;;;5129365;27;24894;-59
2021/09/25 04:02:06;;;;;;;3.90;3.60;;;;;;;;;;5129540;27;24417;-59
2021/09/25 04:04:31;;;;;;;3.30;3.10;;;;;;;;;;5128682;27;24889;-59
2021/09/25 04:06:57;;;;;;;3.70;3.40;;;;;;;;;;5127587;27;24400;-59
2021/09/25 04:09:23;;;;;;;3.42;3.13;;;;;;;;;;5128622;27;24425;-59
2021/09/25 04:11:50;;;;;;;3.60;3.30;;;;;;;;;;5129220;27;24416;-59
2021/09/25 04:14:17;;;;;;;2.80;2.70;;;;;;;;;;5127588;27;24493;-59
2021/09/25 04:16:42;;;;;;;3.10;2.90;;;;;;;;;;5128223;27;24488;-59
2021/09/25 04:19:07;;;;;;;3.35;3.15;;;;;;;;;;5114741;27;24513;-60
2021/09/25 04:21:32;;;;;;;3.22;3.03;;;;;;;;;;5126781;27;24470;-59
2021/09/25 04:23:57;;;;;;;3.03;2.83;;;;;;;;;;5128621;27;24409;-59
2021/09/25 04:26:22;;;;;;;3.20;3.00;;;;;;;;;;5129151;27;24460;-59
2021/09/25 04:28:47;;;;;;;3.75;3.45;;;;;;;;;;5128211;27;24486;-60
2021/09/25 04:31:13;;;;;;;3.70;3.40;;;;;;;;;;5128074;27;24809;-60
2021/09/25 04:33:38;;;;;;;3.10;2.90;;;;;;;;;;5128778;27;24441;-60
2021/09/25 04:36:05;;;;;;;3.10;2.90;;;;;;;;;;5127908;27;21294;-60
2021/09/25 04:38:30;;;;;;;3.30;3.10;;;;;;;;;;5128696;27;24828;-60
2021/09/25 04:40:55;;;;;;;3.30;3.00;;;;;;;;;;5127917;27;24444;-60
2021/09/25 04:43:20;;;;;;;3.42;3.13;;;;;;;;;;5128613;27;24442;-60
2021/09/25 04:45:45;;;;;;;3.10;2.80;;;;;;;;;;5128737;27;24772;-60
2021/09/25 04:48:10;;;;;;;2.90;2.70;;;;;;;;;;5127944;27;24478;-60
2021/09/25 04:50:36;;;;;;;4.10;3.70;;;;;;;;;;5128348;27;24433;-61
2021/09/25 04:53:05;;;;;;;3.10;2.90;;;;;;;;;;5128064;27;24866;-61
2021/09/25 04:55:30;;;;;;;2.60;2.40;;;;;;;;;;5125503;27;24788;-61
2021/09/25 04:57:55;;;;;;;3.38;3.17;;;;;;;;;;5126648;27;24995;-61
2021/09/25 05:00:20;;;;;;;2.90;2.70;;;;;;;;;;5128710;27;24432;-61
2021/09/25 05:02:47;;;;;;;2.90;2.70;;;;;;;;;;5126077;27;24446;-60
2021/09/25 05:05:12;;;;;;;3.20;3.00;;;;;;;;;;5122511;27;25919;-60
2021/09/25 05:07:37;;;;;;;3.67;3.37;;;;;;;;;;5123533;27;24822;-60
2021/09/25 05:10:02;;;;;;;2.60;2.50;;;;;;;;;;5124930;27;24437;-60
2021/09/25 05:12:28;;;;;;;3.20;2.90;;;;;;;;;;5114378;27;24429;-61
2021/09/25 05:14:53;;;;;;;3.40;3.17;;;;;;;;;;5120832;27;24417;-60
2021/09/25 05:17:18;;;;;;;3.20;3.00;;;;;;;;;;5118786;27;25112;-60
2021/09/25 05:19:44;;;;;;;3.47;3.17;;;;;;;;;;5110583;27;24888;-59
2021/09/25 05:22:09;;;;;;;3.70;3.50;;;;;;;;;;5103091;27;24441;-60
2021/09/25 05:24:34;;;;;;;4.40;4.10;;;;;;;;;;5117388;27;24995;-60
2021/09/25 05:27:00;;;;;;;3.10;2.90;;;;;;;;;;5121886;27;24509;-60
2021/09/25 05:29:26;;;;;;;3.70;3.40;;;;;;;;;;5121809;27;24487;-60
2021/09/25 05:31:51;;;;;;;2.70;2.50;;;;;;;;;;5120632;27;24924;-60
2021/09/25 05:34:16;;;;;;;3.30;3.10;;;;;;;;;;5120992;27;24465;-59
2021/09/25 05:36:41;;;;;;;4.05;3.75;;;;;;;;;;5119663;27;24416;-59
2021/09/25 05:39:06;;;;;;;4.20;3.80;;;;;;;;;;5116955;27;25136;-60
2021/09/25 05:41:32;;;;;;;3.93;3.63;;;;;;;;;;5119776;27;24844;-60
2021/09/25 05:43:57;;;;;;;4.00;3.70;;;;;;;;;;5121666;27;24554;-60
2021/09/25 05:46:22;;;;;;;4.07;3.78;;;;;;;;;;5120583;27;24998;-62
2021/09/25 05:48:51;;;;;;;3.60;3.30;;;;;;;;;;5123843;27;24933;-60
2021/09/25 05:51:16;;;;;;;4.27;3.90;;;;;;;;;;5118521;27;24413;-60
2021/09/25 05:53:41;;;;;;;3.60;3.30;;;;;;;;;;5119840;27;24413;-60
2021/09/25 05:56:06;;;;;;;3.80;3.50;;;;;;;;;;5116933;27;24410;-60
2021/09/25 05:58:32;;;;;;;3.40;3.20;;;;;;;;;;5123751;27;24457;-60
2021/09/25 06:00:57;;;;;;;3.10;2.90;;;;;;;;;;5123252;27;25438;-60
2021/09/25 06:03:22;;;;;;;3.28;3.08;;;;;;;;;;5123053;27;24842;-60
2021/09/25 06:05:47;;;;;;;3.10;2.90;;;;;;;;;;5121473;27;24524;-60
2021/09/25 06:08:14;;;;;;;2.83;2.63;;;;;;;;;;5119457;27;24401;-60
2021/09/25 06:10:39;;;;;;;2.80;2.60;;;;;;;;;;5117578;27;24505;-60
2021/09/25 06:13:06;;;;;;;2.63;2.50;;;;;;;;;;5122352;27;24417;-60
2021/09/25 06:15:31;;;;;;;3.10;2.90;;;;;;;;;;5121289;27;24952;-60
2021/09/25 06:17:57;;;;;;;3.30;3.10;;;;;;;;;;5120403;27;24452;-59
2021/09/25 06:20:22;;;;;;;2.90;2.60;;;;;;;;;;5117781;27;24444;-60
2021/09/25 06:22:47;;;;;;;2.50;2.40;;;;;;;;;;5125731;27;24420;-59
2021/09/25 06:25:12;;;;;;;2.20;2.10;;;;;;;;;;5126329;28;25019;-60
2021/09/25 06:27:38;;;;;;;3.00;2.80;;;;;;;;;;5120830;28;24405;-63
2021/09/25 06:30:05;;;;;;;2.60;2.40;;;;;;;;;;5124419;28;24425;-59
2021/09/25 06:32:30;;;;;;;3.50;3.30;;;;;;;;;;5126921;28;24400;-60
2021/09/25 06:34:55;;;;;;;3.50;3.30;;;;;;;;;;5125963;28;24980;-60
2021/09/25 06:37:21;;;;;;;3.53;3.28;;;;;;;;;;5126439;28;24470;-61
2021/09/25 06:39:46;;;;;;;2.50;2.40;;;;;;;;;;5126623;28;24412;-60
2021/09/25 06:42:12;;;;;;;3.50;3.20;;;;;;;;;;5126300;28;25051;-61
2021/09/25 06:44:37;;;;;;;3.10;2.90;;;;;;;;;;5126812;28;24458;-60
2021/09/25 06:47:02;;;;;;;2.70;2.50;;;;;;;;;;5126797;28;24458;-60
2021/09/25 06:49:27;;;;;;;2.67;2.47;;;;;;;;;;5126485;27;25276;-60
2021/09/25 06:51:53;;;;;;;2.90;2.70;;;;;;;;;;5124181;27;24411;-61
2021/09/25 06:54:18;;;;;;;3.20;3.00;;;;;;;;;;5122712;27;24415;-61
2021/09/25 06:56:43;;;;;;;3.00;2.80;;;;;;;;;;5126615;28;24409;-61
2021/09/25 06:59:08;;;;;;;3.03;2.83;;;;;;;;;;5126129;28;24462;-61
2021/09/25 07:01:34;;;;;;;3.00;2.80;;;;;;;;;;5123668;28;24484;-61
2021/09/25 07:03:59;;;;;;;2.40;2.20;;;;;;;;;;5127796;27;24477;-61
2021/09/25 07:06:24;;;;;;;2.90;2.70;;;;;;;;;;5130621;27;24393;-61
2021/09/25 07:08:49;;;;;;;2.80;2.60;;;;;;;;;;5128680;27;24433;-61
2021/09/25 07:11:14;;;;;;;2.90;2.70;;;;;;;;;;5130175;27;25005;-61
2021/09/25 07:13:40;;;;;;;3.03;2.73;;;;;;;;;;5129089;27;24445;-61
2021/09/25 07:16:06;;;;;;;3.70;3.40;;;;;;;;;;5128474;27;24477;-61
2021/09/25 07:18:31;;;;;;;2.90;2.70;;;;;;;;;;5117770;27;24405;-60
2021/09/25 07:20:56;;;;;;;3.47;3.17;;;;;;;;;;5124391;27;24469;-61
2021/09/25 07:23:22;;;;;;;3.03;2.83;;;;;;;;;;5123478;27;24528;-61
2021/09/25 07:25:47;;;;;;;3.40;3.10;;;;;;;;;;5116855;27;24517;-61
2021/09/25 07:28:12;;;;;;;2.90;2.70;;;;;;;;;;5126326;27;24445;-62
2021/09/25 07:30:38;;;;;;;3.47;3.17;;;;;;;;;;5124374;27;24499;-61
2021/09/25 07:33:04;;;;;;;2.92;2.72;;;;;;;;;;5126151;27;24924;-61
2021/09/25 07:35:29;;;;;;;3.03;2.83;;;;;;;;;;5120028;27;24545;-60
2021/09/25 07:37:54;;;;;;;3.00;2.80;;;;;;;;;;5122556;27;24773;-60
2021/09/25 07:40:20;;;;;;;2.97;2.77;;;;;;;;;;5119887;27;24574;-61
2021/09/25 07:42:45;;;;;;;2.97;2.80;;;;;;;;;;5126200;27;24944;-60
2021/09/25 07:45:11;;;;;;;2.73;2.53;;;;;;;;;;5124708;27;24401;-61
2021/09/25 07:47:36;;;;;;;3.40;3.10;;;;;;;;;;5123426;27;24427;-60
2021/09/25 07:50:02;;;;;;;2.80;2.60;;;;;;;;;;5120931;27;24428;-60
2021/09/25 07:52:27;;;;;;;3.10;2.90;;;;;;;;;;5117715;27;25154;-59
2021/09/25 07:54:52;;;;;;;2.92;2.67;;;;;;;;;;5121090;27;25077;-59
2021/09/25 07:57:17;;;;;;;3.20;2.90;;;;;;;;;;5125481;27;24404;-60
2021/09/25 07:59:43;;;;;;;3.10;2.80;;;;;;;;;;5123682;27;24536;-59
2021/09/25 08:02:08;;;;;;;2.90;2.70;;;;;;;;;;5123243;27;25189;-60
2021/09/25 08:04:33;;;;;;;3.00;2.80;;;;;;;;;;5119577;27;24401;-60
2021/09/25 08:06:58;;;;;;;2.63;2.43;;;;;;;;;;5120626;27;24421;-60
2021/09/25 08:09:23;;;;;;;2.60;2.50;;;;;;;;;;5118449;27;24412;-61
2021/09/25 08:11:49;;;;;;;3.60;3.30;;;;;;;;;;5122635;27;24486;-60
2021/09/25 08:14:14;;;;;;;3.00;2.80;;;;;;;;;;5123544;27;24470;-60
2021/09/25 08:16:39;;;;;;;2.80;2.60;;;;;;;;;;5122124;27;25205;-59
2021/09/25 08:19:04;;;;;;;2.60;2.40;;;;;;;;;;5117249;27;24421;-59
2021/09/25 08:21:29;;;;;;;3.20;3.00;;;;;;;;;;5117274;27;24517;-59
2021/09/25 08:23:55;;;;;;;2.50;2.40;;;;;;;;;;5121763;27;24415;-59
2021/09/25 08:26:20;;;;;;;2.80;2.60;;;;;;;;;;5120288;27;24413;-60
2021/09/25 08:28:45;;;;;;;3.30;3.10;;;;;;;;;;5124592;27;24454;-60
2021/09/25 08:31:10;;;;;;;4.03;3.63;;;;;;;;;;5124446;27;25035;-60
2021/09/25 08:33:36;;;;;;;3.03;2.72;;;;;;;;;;5120332;27;24520;-59
2021/09/25 08:36:01;;;;;;;2.90;2.70;;;;;;;;;;5118220;27;24822;-60
2021/09/25 08:38:27;;;;;;;2.90;2.70;;;;;;;;;;5102010;27;24492;-59
2021/09/25 08:40:52;;;;;;;3.00;2.80;;;;;;;;;;5123290;27;24411;-60
2021/09/25 08:43:18;;;;;;;2.80;2.60;;;;;;;;;;5124364;27;24409;-60
2021/09/25 08:45:43;;;;;;;2.70;2.50;;;;;;;;;;5120928;27;25087;-60
2021/09/25 08:48:10;;;;;;;2.93;2.73;;;;;;;;;;5122075;27;24531;-59
2021/09/25 08:50:35;;;;;;;3.50;3.30;;;;;;;;;;5117991;27;24433;-59
2021/09/25 08:53:00;;;;;;;3.50;3.20;;;;;;;;;;5119884;27;24431;-60
2021/09/25 08:55:25;;;;;;;2.60;2.40;;;;;;;;;;5118904;27;24417;-61
2021/09/25 08:57:51;;;;;;;3.10;2.90;;;;;;;;;;5115803;27;24482;-60
2021/09/25 09:00:29;;;;;;;3.07;2.87;;;;;;;;;;5121175;27;24415;-61
2021/09/25 09:02:54;;;;;;;2.90;2.70;;;;;;;;;;5110649;27;24417;-61
2021/09/25 09:05:29;;;;;;;2.90;2.70;;;;;;;;;;5120703;27;24779;-61
2021/09/25 09:07:59;;;;;;;2.80;2.60;;;;;;;;;;5124274;27;25051;-61
2021/09/25 09:10:37;;;;;;;2.53;2.42;;;;;;;;;;5121946;27;24830;-59
2021/09/25 09:13:02;;;;;;;3.20;3.00;;;;;;;;;;5123708;27;24537;-60
2021/09/25 09:15:31;;;;;;;4.50;4.00;;;;;;;;;;5118485;27;24520;-59
2021/09/25 09:17:57;;;;;;;3.83;3.53;;;;;;;;;;5118157;27;24405;-59
2021/09/25 09:20:22;;;;;;;3.80;3.50;;;;;;;;;;5120092;27;24518;-60
2021/09/25 09:22:47;;;;;;;3.50;3.20;;;;;;;;;;5121521;27;24815;-59
2021/09/25 09:25:12;;;;;;;3.50;3.20;;;;;;;;;;5118547;27;24425;-60
2021/09/25 09:27:43;;;;;;;3.43;3.13;;;;;;;;;;5120200;27;24417;-60
2021/09/25 09:30:09;;;;;;;4.32;3.92;;;;;;;;;;5120219;27;24448;-60
2021/09/25 09:32:38;;;;;;;3.70;3.40;;;;;;;;;;5117761;27;24497;-61
2021/09/25 09:35:09;;;;;;;3.70;3.40;;;;;;;;;;5121464;27;24405;-59
2021/09/25 09:37:34;;;;;;;4.38;4.07;;;;;;;;;;5120545;27;24499;-59
2021/09/25 09:40:00;;;;;;;4.18;3.80;;;;;;;;;;5122682;27;25020;-59
2021/09/25 09:42:30;;;;;;;4.60;4.20;;;;;;;;;;5114561;27;24412;-60
2021/09/25 09:44:55;;;;;;;4.10;3.80;;;;;;;;;;5123313;27;24457;-59
2021/09/25 09:47:21;;;;;;;4.30;4.00;;;;;;;;;;5122465;27;24485;-59
2021/09/25 09:49:46;;;;;;;4.80;4.40;;;;;;;;;;5121493;27;24776;-60
2021/09/25 09:52:13;;;;;;;3.80;3.50;;;;;;;;;;5121771;27;24389;-59
2021/09/25 09:54:39;;;;;;;4.10;3.80;;;;;;;;;;5119947;27;24424;-60
2021/09/25 09:57:08;;;;;;;3.90;3.60;;;;;;;;;;5122425;27;24385;-61
2021/09/25 09:59:34;;;;;;;4.43;4.07;;;;;;;;;;5123442;27;24399;-61
2021/09/25 10:01:59;;;;;;;4.30;4.00;;;;;;;;;;5115620;27;24865;-61
2021/09/25 10:04:24;;;;;;;4.07;3.78;;;;;;;;;;5111627;27;24413;-61
2021/09/25 10:06:51;;;;;;;4.60;4.20;;;;;;;;;;5121363;27;24899;-60
2021/09/25 10:09:17;;;;;;;3.93;3.63;;;;;;;;;;5121028;27;24424;-60
2021/09/25 10:11:44;;;;;;;3.30;3.10;;;;;;;;;;5120242;27;24945;-60
2021/09/25 10:14:10;;;;;;;4.35;3.90;;;;;;;;;;5119963;27;24417;-59
2021/09/25 10:16:36;;;;;;;4.20;3.90;;;;;;;;;;5117249;27;24473;-59
2021/09/25 10:19:04;;;;;;;3.80;3.50;;;;;;;;;;5120741;27;24489;-60
2021/09/25 10:21:31;;;;;;;5.18;4.40;;;;;;;;;;5120654;27;24407;-59
2021/09/25 10:24:02;;;;;;;4.28;3.97;;;;;;;;;;5120990;27;24401;-60
2021/09/25 10:26:28;;;;;;;3.90;3.60;;;;;;;;;;5118424;28;24417;-60
2021/09/25 10:28:54;;;;;;;3.50;3.20;;;;;;;;;;5116517;28;24930;-61
2021/09/25 10:31:20;;;;;;;4.30;4.00;;;;;;;;;;5119181;28;24413;-62
2021/09/25 10:34:03;;;;;;;4.13;3.83;;;;;;;;;;5122670;28;24421;-61
2021/09/25 10:36:48;;;;;;;4.00;3.70;;;;;;;;;;5122006;28;24421;-61
2021/09/25 10:39:25;;;;;;;4.70;4.40;;;;;;;;;;5121953;27;25408;-61
2021/09/25 10:42:11;;;;;;;4.60;4.20;;;;;;;;;;5123235;27;24393;-60
2021/09/25 10:44:41;;;;;;;3.30;3.10;;;;;;;;;;5124521;27;24413;-60
2021/09/25 10:47:08;;;;;;;4.38;3.97;;;;;;;;;;5126147;27;25048;-60
2021/09/25 10:49:54;;;;;;;4.10;3.70;;;;;;;;;;5124764;27;24425;-60
2021/09/25 10:52:23;;;;;;;2.90;2.70;;;;;;;;;;5122786;27;24543;-60
2021/09/25 10:55:07;;;;;;;3.90;3.60;;;;;;;;;;5121190;27;24985;-60
2021/09/25 10:57:32;;;;;;;4.50;4.10;;;;;;;;;;5122213;27;24499;-60
2021/09/25 11:00:17;;;;;;;4.32;4.03;;;;;;;;;;5126411;27;25283;-60
2021/09/25 11:02:43;;;;;;;3.33;3.13;;;;;;;;;;5125137;27;24381;-60
2021/09/25 11:05:08;;;;;;;3.83;3.53;;;;;;;;;;5126544;27;24405;-60
2021/09/25 11:07:41;;;;;;;3.37;3.17;;;;;;;;;;5120138;27;25149;-60
2021/09/25 11:10:07;;;;;;;3.63;3.35;;;;;;;;;;5120647;27;24420;-61
2021/09/25 11:12:42;;;;;;;3.80;3.60;;;;;;;;;;5126300;27;24884;-60
2021/09/25 11:15:27;;;;;;;3.60;3.30;;;;;;;;;;5125933;27;24406;-60
2021/09/25 11:18:12;;;;;;;3.45;3.22;;;;;;;;;;5125625;27;24416;-60
2021/09/25 11:20:37;;;;;;;2.90;2.70;;;;;;;;;;5101311;28;24991;-59
2021/09/25 11:23:02;;;;;;;3.63;3.33;;;;;;;;;;5101959;28;24422;-59
2021/09/25 11:25:29;;;;;;;3.67;3.37;;;;;;;;;;5102049;28;25150;-60
2021/09/25 11:27:56;;;;;;;3.50;3.20;;;;;;;;;;5105612;28;24410;-59
2021/09/25 11:30:22;;;;;;;3.38;3.17;;;;;;;;;;5119609;27;24444;-59
2021/09/25 11:32:57;;;;;;;2.90;2.70;;;;;;;;;;5123087;27;24410;-60
2021/09/25 11:35:24;;;;;;;2.80;2.60;;;;;;;;;;5121029;27;24468;-61
2021/09/25 11:38:03;;;;;;;2.90;2.45;;;;;;;;;;5121086;27;24519;-61
2021/09/25 11:40:30;;;;;;;2.60;2.40;;;;;;;;;;5123611;27;25071;-60
2021/09/25 11:43:05;;;;;;;2.30;2.20;;;;;;;;;;5125749;27;24512;-60
2021/09/25 11:45:32;;;;;;;3.30;3.10;;;;;;;;;;5121399;27;24512;-60
2021/09/25 11:47:57;;;;;;;2.70;2.50;;;;;;;;;;5120494;27;24424;-61
2021/09/25 11:50:24;;;;;;;2.80;2.60;;;;;;;;;;5120012;27;24601;-60
2021/09/25 11:52:50;;;;;;;3.20;3.00;;;;;;;;;;5121474;27;24937;-60
2021/09/25 11:55:16;;;;;;;2.80;2.60;;;;;;;;;;5120031;27;24472;-60
2021/09/25 11:57:48;;;;;;;2.80;2.60;;;;;;;;;;5124852;27;24995;-60
2021/09/25 12:00:25;;;;;;;2.50;2.40;;;;;;;;;;5125185;27;24480;-60
2021/09/25 12:02:51;;;;;;;2.60;2.40;;;;;;;;;;5123447;27;24420;-60
2021/09/25 12:05:31;;;;;;;2.40;2.30;;;;;;;;;;5125345;27;24412;-61
2021/09/25 12:07:58;;;;;;;2.80;2.60;;;;;;;;;;5119219;27;25051;-59
2021/09/25 12:10:27;;;;;;;2.40;2.30;;;;;;;;;;5117888;27;24831;-60
2021/09/25 12:12:54;;;;;;;2.80;2.50;;;;;;;;;;5125251;27;24394;-60
2021/09/25 12:15:26;;;;;;;2.50;2.40;;;;;;;;;;5125061;27;24992;-60
2021/09/25 12:18:02;;;;;;;2.20;2.10;;;;;;;;;;5124504;27;24451;-60
2021/09/25 12:20:30;;;;;;;2.20;2.10;;;;;;;;;;5120835;27;24551;-61
2021/09/25 12:22:55;;;;;;;2.30;2.20;;;;;;;;;;5119546;27;24389;-61
2021/09/25 12:25:20;;;;;;;2.20;2.10;;;;;;;;;;5119308;27;25250;-60
2021/09/25 12:27:45;;;;;;;2.10;2.00;;;;;;;;;;5121214;27;24393;-60
2021/09/25 12:30:11;;;;;;;2.25;2.15;;;;;;;;;;5105858;27;24805;-60
2021/09/25 12:32:39;;;;;;;1.90;1.80;;;;;;;;;;5122765;27;24385;-60
2021/09/25 12:35:15;;;;;;;2.03;1.93;;;;;;;;;;5122769;27;24395;-61
2021/09/25 12:37:48;;;;;;;2.40;2.20;;;;;;;;;;5118243;27;24413;-60
2021/09/25 12:40:13;;;;;;;2.70;1.80;;;;;;;;;;5118392;27;24542;-60
2021/09/25 12:42:39;;;;;;;1.93;1.83;;;;;;;;;;5124928;27;24848;-60
2021/09/25 12:45:04;;;;;;;2.17;1.92;;;;;;;;;;5124574;27;24825;-60
2021/09/25 12:47:33;;;;;;;2.40;2.20;;;;;;;;;;5118431;27;25024;-60
2021/09/25 12:50:13;;;;;;;1.90;1.80;;;;;;;;;;5122149;27;24447;-61
2021/09/25 12:52:40;;;;;;;1.85;1.75;;;;;;;;;;5123856;27;24969;-61
2021/09/25 12:55:07;;;;;;;2.20;2.10;;;;;;;;;;5124492;27;24393;-61
2021/09/25 12:57:32;;;;;;;1.70;1.60;;;;;;;;;;5119601;27;24522;-59
2021/09/25 12:59:59;;;;;;;1.80;1.70;;;;;;;;;;5120449;27;24719;-60
2021/09/25 13:02:27;;;;;;;1.90;1.80;;;;;;;;;;5122810;27;24408;-59
2021/09/25 13:04:56;;;;;;;1.70;1.60;;;;;;;;;;5122297;27;24974;-60
2021/09/25 13:07:25;;;;;;;1.60;1.50;;;;;;;;;;5123643;27;24684;-60
2021/09/25 13:09:54;;;;;;;1.98;1.88;;;;;;;;;;5119508;27;24429;-60
2021/09/25 13:12:26;;;;;;;1.70;1.60;;;;;;;;;;5120039;27;24397;-59
2021/09/25 13:14:57;;;;;;;1.60;1.50;;;;;;;;;;5122210;27;24472;-60
2021/09/25 13:17:23;;;;;;;1.60;1.50;;;;;;;;;;5122423;27;24460;-61
2021/09/25 13:19:48;;;;;;;2.13;2.00;;;;;;;;;;5123929;27;24401;-59
2021/09/25 13:22:13;;;;;;;1.93;1.80;;;;;;;;;;5121712;27;24515;-59
2021/09/25 13:24:40;;;;;;;2.13;2.03;;;;;;;;;;5118223;27;24465;-60
2021/09/25 13:27:05;;;;;;;1.90;1.80;;;;;;;;;;5120138;27;24427;-60
2021/09/25 13:29:30;;;;;;;1.90;1.80;;;;;;;;;;5121597;27;25141;-60
2021/09/25 13:31:55;;;;;;;1.70;1.60;;;;;;;;;;5123683;27;24393;-60
2021/09/25 13:34:21;;;;;;;1.88;1.77;;;;;;;;;;5123104;27;24866;-60
2021/09/25 13:36:46;;;;;;;1.70;1.60;;;;;;;;;;5121970;27;24960;-60
2021/09/25 13:39:11;;;;;;;2.13;1.93;;;;;;;;;;5118043;27;24389;-60
2021/09/25 13:41:36;;;;;;;2.40;2.20;;;;;;;;;;5117888;27;24451;-60
2021/09/25 13:44:01;;;;;;;2.20;2.10;;;;;;;;;;5123066;27;24445;-60
2021/09/25 13:46:26;;;;;;;2.20;2.00;;;;;;;;;;5123255;27;24676;-61
2021/09/25 13:48:52;;;;;;;3.10;2.20;;;;;;;;;;5119716;27;24412;-60
2021/09/25 13:51:17;;;;;;;2.10;2.00;;;;;;;;;;5117534;27;24472;-60
2021/09/25 13:53:42;;;;;;;2.00;1.90;;;;;;;;;;5119263;27;24411;-60
2021/09/25 13:56:08;;;;;;;2.23;2.07;;;;;;;;;;5123382;27;24454;-60
2021/09/25 13:58:34;;;;;;;2.00;1.90;;;;;;;;;;5121044;27;24764;-61
2021/09/25 14:00:59;;;;;;;2.20;2.00;;;;;;;;;;5121081;27;24401;-59
2021/09/25 14:03:24;;;;;;;1.83;1.73;;;;;;;;;;5117372;27;24458;-62
2021/09/25 14:05:50;;;;;;;1.90;1.80;;;;;;;;;;5121013;27;24962;-60
2021/09/25 14:08:16;;;;;;;1.80;1.70;;;;;;;;;;5121192;27;24505;-61
2021/09/25 14:10:41;;;;;;;1.80;1.70;;;;;;;;;;5123446;27;24512;-61
2021/09/25 14:13:07;;;;;;;2.30;2.10;;;;;;;;;;5122528;27;24421;-61
2021/09/25 14:15:32;;;;;;;1.67;1.58;;;;;;;;;;5116075;27;25009;-60
2021/09/25 14:17:57;;;;;;;1.77;1.60;;;;;;;;;;5119008;27;24389;-61
2021/09/25 14:20:22;;;;;;;1.60;1.50;;;;;;;;;;5119190;27;24492;-61
2021/09/25 14:22:47;;;;;;;1.60;1.50;;;;;;;;;;5123194;27;24598;-60
2021/09/25 14:25:13;;;;;;;1.27;1.27;;;;;;;;;;5122929;27;24470;-61
2021/09/25 14:27:38;;;;;;;1.60;1.50;;;;;;;;;;5120904;28;24401;-60
2021/09/25 14:30:03;;;;;;;1.30;1.30;;;;;;;;;;5120570;28;24456;-60
2021/09/25 14:32:28;;;;;;;1.50;1.40;;;;;;;;;;5116700;28;25064;-60
2021/09/25 14:34:54;;;;;;;1.40;1.30;;;;;;;;;;5120918;28;24986;-60
2021/09/25 14:37:19;;;;;;;1.20;1.20;;;;;;;;;;5122142;28;24405;-59
2021/09/25 14:39:44;;;;;;;1.17;1.17;;;;;;;;;;5121180;28;24432;-60